createdAt,value
2023-04-18T00:01:12.502Z,10.78
2023-04-18T00:03:40.481Z,10.74
2023-04-18T00:06:07.801Z,10.66
2023-04-18T00:08:34.977Z,10.55
2023-04-18T00:11:02.111Z,10.45
2023-04-18T00:13:29.327Z,10.27
2023-04-18T00:15:56.740Z,10.17
2023-04-18T00:18:26.486Z,10.12
2023-04-18T00:20:54.520Z,10.01
2023-04-18T00:23:22.289Z,10.01
2023-04-18T00:25:49.539Z,9.97
2023-04-18T00:28:16.689Z,9.91
2023-04-18T00:30:43.907Z,9.82
2023-04-18T00:33:11.052Z,9.85
2023-04-18T00:35:38.483Z,9.83
2023-04-18T00:38:05.793Z,9.87
2023-04-18T00:40:33.192Z,9.92
2023-04-18T00:43:00.923Z,9.96
2023-04-18T00:45:28.396Z,9.81
2023-04-18T00:47:56.779Z,9.73
2023-04-18T00:50:24.810Z,9.72
2023-04-18T00:52:53.598Z,9.68
2023-04-18T00:55:21.716Z,9.59
2023-04-18T00:57:49.056Z,9.57
2023-04-18T01:00:16.779Z,9.52
2023-04-18T01:02:44.243Z,9.53
2023-04-18T01:05:11.926Z,9.57
2023-04-18T01:07:42.004Z,9.55
2023-04-18T01:10:10.875Z,9.54
2023-04-18T01:12:38.234Z,9.54
2023-04-18T01:15:06.991Z,9.55
2023-04-18T01:17:36.016Z,9.56
2023-04-18T01:20:06.246Z,9.54
2023-04-18T01:22:34.032Z,9.56
2023-04-18T01:25:07.504Z,9.53
2023-04-18T01:27:34.957Z,9.53
2023-04-18T01:30:02.373Z,9.52
2023-04-18T01:32:32.453Z,9.54
2023-04-18T01:34:59.896Z,9.60
2023-04-18T01:37:27.207Z,9.61
2023-04-18T01:39:54.321Z,9.64
2023-04-18T01:42:21.480Z,9.67
2023-04-18T01:44:48.695Z,9.68
2023-04-18T01:47:15.831Z,9.62
2023-04-18T01:49:47.961Z,9.63
2023-04-18T01:52:16.046Z,9.63
2023-04-18T01:54:46.920Z,9.57
2023-04-18T01:57:17.582Z,9.47
2023-04-18T01:59:44.752Z,9.32
2023-04-18T02:02:12.122Z,9.16
2023-04-18T02:04:39.303Z,8.97
2023-04-18T02:07:06.463Z,8.97
2023-04-18T02:09:34.812Z,9.04
2023-04-18T02:12:02.563Z,9.11
2023-04-18T02:14:36.254Z,9.10
2023-04-18T02:17:03.435Z,9.11
2023-04-18T02:19:30.791Z,9.11
2023-04-18T02:22:00.214Z,9.09
2023-04-18T02:24:27.492Z,9.12
2023-04-18T02:26:54.630Z,9.15
2023-04-18T02:29:21.793Z,9.14
2023-04-18T02:31:48.978Z,9.10
2023-04-18T02:34:16.292Z,9.04
2023-04-18T02:36:43.689Z,9.04
2023-04-18T02:39:11.186Z,8.99
2023-04-18T02:41:39.344Z,8.98
2023-04-18T02:44:08.299Z,8.92
2023-04-18T02:46:38.559Z,8.93
2023-04-18T02:49:08.973Z,8.94
2023-04-18T02:51:36.142Z,8.92
2023-04-18T02:54:03.528Z,8.90
2023-04-18T02:56:42.796Z,8.86
2023-04-18T02:59:32.791Z,8.88
2023-04-18T03:02:02.646Z,8.87
2023-04-18T03:04:30.241Z,8.81
2023-04-18T03:07:00.644Z,8.66
2023-04-18T03:09:30.407Z,8.55
2023-04-18T03:12:02.682Z,8.57
2023-04-18T03:14:31.357Z,8.63
2023-04-18T03:16:59.838Z,8.60
2023-04-18T03:19:32.065Z,8.56
2023-04-18T03:22:04.781Z,8.48
2023-04-18T03:24:32.953Z,8.46
2023-04-18T03:27:02.758Z,8.45
2023-04-18T03:29:30.193Z,8.45
2023-04-18T03:31:57.971Z,8.46
2023-04-18T03:34:25.316Z,8.54
2023-04-18T03:36:54.650Z,8.49
2023-04-18T03:39:22.336Z,8.52
2023-04-18T03:41:49.827Z,8.59
2023-04-18T03:44:17.324Z,8.59
2023-04-18T03:46:44.615Z,8.65
2023-04-18T03:49:12.427Z,8.69
2023-04-18T03:51:49.839Z,8.74
2023-04-18T03:54:18.423Z,8.81
2023-04-18T03:56:46.220Z,8.85
2023-04-18T03:59:15.344Z,8.86
2023-04-18T04:01:46.172Z,8.94
2023-04-18T04:04:15.297Z,8.93
2023-04-18T04:06:43.313Z,8.98
2023-04-18T04:09:10.506Z,9.01
2023-04-18T04:11:39.579Z,8.97
2023-04-18T04:14:09.178Z,8.96
2023-04-18T04:16:41.450Z,8.95
2023-04-18T04:19:10.583Z,8.92
2023-04-18T04:21:43.762Z,8.99
2023-04-18T04:24:14.388Z,9.07
2023-04-18T04:26:46.617Z,8.88
2023-04-18T04:29:18.898Z,8.77
2023-04-18T04:31:47.905Z,8.77
2023-04-18T04:34:22.749Z,8.77
2023-04-18T04:36:51.173Z,8.80
2023-04-18T04:39:18.668Z,8.84
2023-04-18T04:42:04.374Z,8.92
2023-04-18T04:44:41.558Z,8.97
2023-04-18T04:47:09.141Z,8.96
2023-04-18T04:49:38.669Z,8.96
2023-04-18T04:52:05.822Z,9.05
2023-04-18T04:54:33.014Z,9.10
2023-04-18T04:57:01.484Z,9.10
2023-04-18T04:59:28.667Z,9.13
2023-04-18T05:01:55.894Z,9.14
2023-04-18T05:04:24.316Z,9.17
2023-04-18T05:06:52.121Z,9.17
2023-04-18T05:09:19.754Z,9.22
2023-04-18T05:11:49.381Z,9.33
2023-04-18T05:14:17.619Z,9.35
2023-04-18T05:16:44.934Z,9.37
2023-04-18T05:19:12.119Z,9.45
2023-04-18T05:21:39.348Z,9.55
2023-04-18T05:24:06.820Z,9.66
2023-04-18T05:26:34.016Z,9.72
2023-04-18T05:29:01.461Z,9.81
2023-04-18T05:31:29.376Z,9.87
2023-04-18T05:33:56.734Z,9.93
2023-04-18T05:36:23.934Z,9.96
2023-04-18T05:38:52.780Z,10.09
2023-04-18T05:41:19.967Z,10.20
2023-04-18T05:44:01.837Z,10.24
2023-04-18T05:46:31.886Z,10.24
2023-04-18T05:48:59.123Z,10.23
2023-04-18T05:51:26.725Z,10.23
2023-04-18T05:53:54.224Z,10.23
2023-04-18T05:56:21.365Z,10.19
2023-04-18T05:58:51.191Z,10.12
2023-04-18T06:01:21.482Z,10.10
2023-04-18T06:03:49.061Z,10.14
2023-04-18T06:06:16.482Z,10.14
2023-04-18T06:08:43.782Z,10.17
2023-04-18T06:11:11.539Z,10.18
2023-04-18T06:13:38.850Z,10.22
2023-04-18T06:16:06.657Z,10.26
2023-04-18T06:18:34.237Z,10.33
2023-04-18T06:21:01.549Z,10.41
2023-04-18T06:23:28.699Z,10.45
2023-04-18T06:25:57.470Z,10.58
2023-04-18T06:28:25.098Z,10.74
2023-04-18T06:30:52.213Z,10.86
2023-04-18T06:33:19.384Z,10.96
2023-04-18T06:35:46.926Z,11.06
2023-04-18T06:38:14.283Z,11.20
2023-04-18T06:40:41.559Z,11.33
2023-04-18T06:43:08.730Z,11.48
2023-04-18T06:45:36.215Z,11.61
2023-04-18T06:48:04.804Z,11.72
2023-04-18T06:50:32.127Z,11.89
2023-04-18T06:52:59.398Z,12.00
2023-04-18T06:55:26.589Z,12.06
2023-04-18T06:57:53.768Z,12.14
2023-04-18T07:00:21.377Z,12.26
2023-04-18T07:02:48.946Z,12.34
2023-04-18T07:05:18.858Z,12.45
2023-04-18T07:07:46.025Z,12.48
2023-04-18T07:10:13.274Z,12.53
2023-04-18T07:12:40.480Z,12.55
2023-04-18T07:15:08.844Z,12.57
2023-04-18T07:17:35.895Z,12.64
2023-04-18T07:20:03.399Z,12.70
2023-04-18T07:22:31.037Z,12.83
2023-04-18T07:24:58.169Z,13.00
2023-04-18T07:27:25.907Z,13.09
2023-04-18T07:29:53.057Z,13.26
2023-04-18T07:32:20.295Z,13.42
2023-04-18T07:34:48.016Z,13.63
2023-04-18T07:37:16.592Z,13.78
2023-04-18T07:39:43.780Z,13.87
2023-04-18T07:42:11.283Z,13.90
2023-04-18T07:44:38.618Z,14.02
2023-04-18T07:47:11.292Z,14.04
2023-04-18T07:49:39.008Z,14.14
2023-04-18T07:52:06.412Z,14.27
2023-04-18T07:54:33.810Z,14.65
2023-04-18T07:57:01.034Z,14.71
2023-04-18T07:59:29.736Z,14.79
2023-04-18T08:01:56.903Z,14.99
2023-04-18T08:04:24.629Z,15.14
2023-04-18T08:06:52.897Z,15.11
2023-04-18T08:09:21.695Z,15.09
2023-04-18T08:11:48.908Z,15.07
2023-04-18T08:14:16.098Z,15.12
2023-04-18T08:16:43.438Z,15.39
2023-04-18T08:19:10.694Z,15.42
2023-04-18T08:21:39.183Z,15.60
2023-04-18T08:24:07.078Z,15.49
2023-04-18T08:26:34.195Z,15.50
2023-04-18T08:29:01.472Z,15.55
2023-04-18T08:31:28.730Z,15.83
2023-04-18T08:33:56.057Z,15.99
2023-04-18T08:36:24.805Z,15.91
2023-04-18T08:38:51.936Z,16.17
2023-04-18T08:41:25.041Z,16.20
2023-04-18T08:43:52.259Z,16.14
2023-04-18T08:46:19.599Z,16.21
2023-04-18T08:48:51.285Z,16.32
2023-04-18T08:51:18.752Z,16.64
2023-04-18T08:53:48.276Z,16.82
2023-04-18T08:56:16.240Z,16.68
2023-04-18T08:58:45.031Z,16.65
2023-04-18T09:01:13.494Z,16.60
2023-04-18T09:03:43.250Z,16.87
2023-04-18T09:06:19.352Z,17.00
2023-04-18T09:09:03.830Z,17.20
2023-04-18T09:11:32.393Z,17.10
2023-04-18T09:13:59.856Z,16.95
2023-04-18T09:16:28.018Z,17.04
2023-04-18T09:19:12.807Z,16.59
2023-04-18T09:21:47.128Z,16.59
2023-04-18T09:24:26.983Z,16.85
2023-04-18T09:26:58.521Z,17.09
2023-04-18T09:29:49.232Z,16.89
2023-04-18T09:32:29.402Z,16.85
2023-04-18T09:35:04.966Z,16.77
2023-04-18T09:37:32.393Z,17.14
2023-04-18T09:39:59.534Z,17.27
2023-04-18T09:42:28.763Z,17.15
2023-04-18T09:45:06.393Z,17.36
2023-04-18T09:47:36.483Z,17.45
2023-04-18T09:50:09.950Z,16.96
2023-04-18T09:52:41.419Z,17.53
2023-04-18T09:55:12.706Z,17.93
2023-04-18T09:57:44.076Z,17.74
2023-04-18T10:00:24.785Z,17.77
2023-04-18T10:02:59.696Z,17.64
2023-04-18T10:05:34.557Z,17.19
2023-04-18T10:08:03.417Z,18.04
2023-04-18T10:10:30.988Z,17.63
2023-04-18T10:13:02.035Z,17.37
2023-04-18T10:15:31.028Z,17.78
2023-04-18T10:18:05.847Z,17.87
2023-04-18T10:20:35.355Z,18.13
2023-04-18T10:23:39.012Z,17.94
2023-04-18T10:26:11.314Z,18.13
2023-04-18T10:28:54.376Z,18.33
2023-04-18T10:31:27.794Z,18.46
2023-04-18T10:36:28.945Z,18.00
2023-04-18T10:39:28.423Z,18.37
2023-04-18T10:41:55.621Z,18.51
2023-04-18T10:44:24.070Z,18.92
2023-04-18T10:46:51.376Z,18.89
2023-04-18T10:49:32.583Z,18.92
2023-04-18T10:52:02.812Z,19.28
2023-04-18T10:54:52.024Z,18.88
2023-04-18T10:57:19.240Z,18.71
2023-04-18T10:59:52.159Z,18.53
2023-04-18T11:02:28.857Z,18.78
2023-04-18T11:05:00.179Z,18.53
2023-04-18T11:07:40.739Z,21.05
2023-04-18T11:10:09.768Z,22.28
2023-04-18T11:12:40.474Z,22.61
2023-04-18T11:15:36.747Z,19.78
2023-04-18T11:18:05.062Z,22.12
2023-04-18T11:20:50.440Z,24.11
2023-04-18T11:23:22.794Z,25.86
2023-04-18T11:25:53.676Z,26.10
2023-04-18T11:28:22.604Z,24.80
2023-04-18T11:30:50.273Z,25.95
2023-04-18T11:33:17.507Z,27.15
2023-04-18T11:35:46.818Z,28.36
2023-04-18T11:38:18.505Z,24.55
2023-04-18T11:40:50.587Z,24.97
2023-04-18T11:43:24.080Z,21.64
2023-04-18T11:45:59.784Z,19.33
2023-04-18T11:48:40.577Z,20.23
2023-04-18T11:51:32.973Z,20.82
2023-04-18T11:54:00.430Z,20.12
2023-04-18T11:56:27.970Z,20.13
2023-04-18T11:58:55.216Z,20.26
2023-04-18T12:01:25.508Z,20.37
2023-04-18T12:04:08.178Z,19.22
2023-04-18T12:06:53.692Z,19.44
2023-04-18T12:09:25.118Z,19.66
2023-04-18T12:12:03.770Z,19.84
2023-04-18T12:14:31.122Z,19.92
2023-04-18T12:16:58.279Z,19.92
2023-04-18T12:19:30.014Z,20.02
2023-04-18T12:22:06.481Z,20.33
2023-04-18T12:24:34.461Z,20.40
2023-04-18T12:27:01.877Z,19.71
2023-04-18T12:29:29.752Z,20.42
2023-04-18T12:31:57.108Z,19.65
2023-04-18T12:34:24.415Z,20.05
2023-04-18T12:36:52.271Z,20.31
2023-04-18T12:39:19.411Z,19.79
2023-04-18T12:41:49.560Z,20.20
2023-04-18T12:44:17.242Z,20.50
2023-04-18T12:46:44.501Z,21.02
2023-04-18T12:49:11.672Z,20.06
2023-04-18T12:51:39.729Z,20.72
2023-04-18T12:54:06.856Z,20.25
2023-04-18T12:56:34.014Z,20.10
2023-04-18T12:59:01.201Z,20.11
2023-04-18T13:01:31.015Z,19.76
2023-04-18T13:04:11.063Z,19.49
2023-04-18T13:06:40.045Z,19.95
2023-04-18T13:09:07.400Z,20.22
2023-04-18T13:11:34.564Z,20.39
2023-04-18T13:14:01.675Z,20.70
2023-04-18T13:16:28.864Z,21.10
2023-04-18T13:18:56.151Z,21.11
2023-04-18T13:21:25.082Z,21.09
2023-04-18T13:23:52.399Z,21.26
2023-04-18T13:26:20.562Z,21.92
2023-04-18T13:28:48.841Z,22.03
2023-04-18T13:31:17.244Z,22.30
2023-04-18T13:33:44.474Z,21.51
2023-04-18T13:36:11.637Z,22.28
2023-04-18T13:38:39.174Z,23.39
2023-04-18T13:41:12.742Z,22.64
2023-04-18T13:43:40.890Z,22.79
2023-04-18T13:46:08.094Z,21.60
2023-04-18T13:48:35.339Z,22.78
2023-04-18T13:51:03.213Z,22.55
2023-04-18T13:53:31.075Z,23.30
2023-04-18T13:55:59.054Z,26.15
2023-04-18T13:58:26.194Z,28.45
2023-04-18T14:00:53.908Z,30.87
2023-04-18T14:03:21.260Z,31.88
2023-04-18T14:05:48.746Z,28.30
2023-04-18T14:08:15.895Z,24.28
2023-04-18T14:10:43.027Z,26.39
2023-04-18T14:13:10.180Z,29.59
2023-04-18T14:15:37.329Z,31.46
2023-04-18T14:18:04.826Z,29.51
2023-04-18T14:20:34.627Z,28.89
2023-04-18T14:23:01.943Z,27.47
2023-04-18T14:25:30.346Z,31.06
2023-04-18T14:28:13.311Z,31.48
2023-04-18T14:30:40.749Z,30.33
2023-04-18T14:33:09.371Z,27.11
2023-04-18T14:35:36.823Z,26.06
2023-04-18T14:38:04.069Z,28.00
2023-04-18T14:40:32.853Z,31.40
2023-04-18T14:43:00.499Z,32.58
2023-04-18T14:45:28.035Z,32.41
2023-04-18T14:47:55.900Z,30.72
2023-04-18T14:50:23.497Z,28.73
2023-04-18T14:52:51.084Z,31.64
2023-04-18T14:55:20.013Z,30.39
2023-04-18T14:57:47.438Z,30.65
2023-04-18T15:00:15.525Z,28.12
2023-04-18T15:02:43.013Z,28.65
2023-04-18T15:05:12.319Z,32.43
2023-04-18T15:07:40.701Z,30.52
2023-04-18T15:10:08.875Z,32.32
2023-04-18T15:12:36.095Z,33.47
2023-04-18T15:15:03.516Z,33.93
2023-04-18T15:17:30.817Z,31.97
2023-04-18T15:19:59.518Z,29.23
2023-04-18T15:22:26.679Z,26.50
2023-04-18T15:24:53.824Z,26.47
2023-04-18T15:27:21.002Z,26.67
2023-04-18T15:29:48.139Z,26.49
2023-04-18T15:32:15.425Z,27.97
2023-04-18T15:34:42.674Z,28.90
2023-04-18T15:37:11.094Z,31.18
2023-04-18T15:39:38.998Z,32.06
2023-04-18T15:42:06.747Z,28.57
2023-04-18T15:44:33.884Z,26.97
2023-04-18T15:47:01.825Z,27.87
2023-04-18T15:49:29.072Z,27.17
2023-04-18T15:51:56.784Z,25.84
2023-04-18T15:54:24.053Z,26.36
2023-04-18T15:56:51.568Z,25.36
2023-04-18T15:59:18.775Z,24.11
2023-04-18T16:01:46.272Z,25.22
2023-04-18T16:04:13.724Z,27.43
2023-04-18T16:06:41.408Z,28.63
2023-04-18T16:09:08.606Z,25.41
2023-04-18T16:11:36.084Z,23.92
2023-04-18T16:14:03.272Z,23.56
2023-04-18T16:16:30.616Z,23.46
2023-04-18T16:18:57.879Z,24.22
2023-04-18T16:21:25.005Z,24.47
2023-04-18T16:23:52.270Z,25.35
2023-04-18T16:26:19.661Z,27.86
2023-04-18T16:28:48.116Z,25.70
2023-04-18T16:31:16.120Z,26.06
2023-04-18T16:33:44.948Z,27.16
2023-04-18T16:36:12.249Z,26.33
2023-04-18T16:38:39.441Z,28.56
2023-04-18T16:41:06.598Z,28.00
2023-04-18T16:43:36.495Z,25.29
2023-04-18T16:46:04.268Z,25.62
2023-04-18T16:48:31.472Z,25.59
2023-04-18T16:50:58.776Z,24.86
2023-04-18T16:53:26.244Z,22.67
2023-04-18T16:55:54.485Z,21.04
2023-04-18T16:58:23.102Z,21.97
2023-04-18T17:00:52.887Z,23.12
2023-04-18T17:03:20.297Z,23.08
2023-04-18T17:05:47.572Z,23.22
2023-04-18T17:08:14.945Z,22.08
2023-04-18T17:10:42.460Z,23.30
2023-04-18T17:13:09.648Z,22.84
2023-04-18T17:15:36.966Z,20.89
2023-04-18T17:18:04.245Z,20.72
2023-04-18T17:20:31.531Z,21.05
2023-04-18T17:22:58.756Z,21.70
2023-04-18T17:25:26.065Z,21.75
2023-04-18T17:27:53.328Z,21.01
2023-04-18T17:30:20.820Z,21.43
2023-04-18T17:32:49.082Z,19.84
2023-04-18T17:35:17.911Z,19.91
2023-04-18T17:37:47.769Z,20.38
2023-04-18T17:40:15.204Z,20.72
2023-04-18T17:42:42.392Z,19.34
2023-04-18T17:45:10.867Z,19.28
2023-04-18T17:47:38.764Z,19.67
2023-04-18T17:50:07.314Z,19.45
2023-04-18T17:52:34.497Z,19.50
2023-04-18T17:55:01.762Z,19.27
2023-04-18T17:57:30.597Z,19.00
2023-04-18T17:59:57.767Z,18.97
2023-04-18T18:02:25.211Z,19.11
2023-04-18T18:04:52.929Z,18.98
2023-04-18T18:07:20.680Z,18.86
2023-04-18T18:09:47.901Z,18.82
2023-04-18T18:12:15.180Z,18.80
2023-04-18T18:14:45.472Z,18.64
2023-04-18T18:17:12.805Z,18.53
2023-04-18T18:19:40.169Z,18.50
2023-04-18T18:22:08.294Z,18.44
2023-04-18T18:24:35.552Z,18.14
2023-04-18T18:27:02.756Z,18.10
2023-04-18T18:29:29.975Z,18.05
2023-04-18T18:31:57.106Z,18.01
2023-04-18T18:34:24.285Z,17.97
2023-04-18T18:36:51.538Z,17.86
2023-04-18T18:39:18.802Z,17.76
2023-04-18T18:41:45.995Z,17.67
2023-04-18T18:44:13.140Z,17.64
2023-04-18T18:46:42.025Z,17.49
2023-04-18T18:49:10.248Z,17.40
2023-04-18T18:51:37.374Z,17.29
2023-04-18T18:54:04.617Z,17.20
2023-04-18T18:56:31.752Z,17.14
2023-04-18T18:58:58.906Z,17.07
2023-04-18T19:01:26.209Z,16.94
2023-04-18T19:03:53.560Z,16.82
2023-04-18T19:06:20.789Z,16.75
2023-04-18T19:08:48.052Z,16.65
2023-04-18T19:11:16.141Z,16.57
2023-04-18T19:13:43.286Z,16.51
2023-04-18T19:16:10.665Z,16.39
2023-04-18T19:18:37.907Z,16.32
2023-04-18T19:21:05.477Z,16.16
2023-04-18T19:23:32.726Z,16.09
2023-04-18T19:25:59.847Z,16.01
2023-04-18T19:28:27.629Z,15.93
2023-04-18T19:30:54.741Z,15.89
2023-04-18T19:33:24.503Z,15.82
2023-04-18T19:35:52.057Z,15.66
2023-04-18T19:38:19.343Z,15.53
2023-04-18T19:40:46.775Z,15.40
2023-04-18T19:43:13.971Z,15.28
2023-04-18T19:45:41.167Z,15.30
2023-04-18T19:48:08.418Z,15.32
2023-04-18T19:50:35.717Z,15.17
2023-04-18T19:53:02.847Z,15.12
2023-04-18T19:55:30.142Z,15.14
2023-04-18T19:57:59.717Z,15.23
2023-04-18T20:00:28.068Z,15.21
2023-04-18T20:02:55.533Z,15.15
2023-04-18T20:05:23.018Z,15.09
2023-04-18T20:07:50.500Z,15.02
2023-04-18T20:10:23.240Z,14.91
2023-04-18T20:12:50.474Z,14.87
2023-04-18T20:15:17.691Z,14.90
2023-04-18T20:17:44.921Z,14.88
2023-04-18T20:20:13.014Z,14.78
2023-04-18T20:22:42.988Z,14.70
2023-04-18T20:25:10.144Z,14.66
2023-04-18T20:27:37.330Z,14.66
2023-04-18T20:30:08.631Z,14.56
2023-04-18T20:32:36.027Z,14.48
2023-04-18T20:35:04.359Z,14.49
2023-04-18T20:37:36.427Z,14.50
2023-04-18T20:40:05.730Z,14.49
2023-04-18T20:42:34.205Z,14.48
2023-04-18T20:45:03.766Z,14.44
2023-04-18T20:47:31.034Z,14.37
2023-04-18T20:49:58.226Z,14.29
2023-04-18T20:52:25.384Z,14.22
2023-04-18T20:54:52.493Z,14.11
2023-04-18T20:57:20.058Z,14.11
2023-04-18T20:59:47.602Z,14.10
2023-04-18T21:02:14.925Z,14.04
2023-04-18T21:04:42.291Z,14.00
2023-04-18T21:07:09.516Z,14.03
2023-04-18T21:09:36.964Z,13.98
2023-04-18T21:12:05.630Z,13.96
2023-04-18T21:14:32.881Z,13.95
2023-04-18T21:17:00.776Z,13.97
2023-04-18T21:19:28.218Z,13.94
2023-04-18T21:21:55.625Z,13.91
2023-04-18T21:24:22.798Z,13.90
2023-04-18T21:26:52.948Z,13.83
2023-04-18T21:29:21.600Z,13.81
2023-04-18T21:31:50.117Z,13.78
2023-04-18T21:34:17.511Z,13.71
2023-04-18T21:36:44.857Z,13.76
2023-04-18T21:39:12.060Z,13.79
2023-04-18T21:41:39.208Z,13.81
2023-04-18T21:44:06.397Z,13.79
2023-04-18T21:46:33.673Z,13.78
2023-04-18T21:49:00.804Z,13.76
2023-04-18T21:51:28.231Z,13.82
2023-04-18T21:53:55.446Z,13.80
2023-04-18T21:56:22.647Z,13.82
2023-04-18T21:58:49.803Z,13.76
2023-04-18T22:01:17.088Z,13.76
2023-04-18T22:03:44.575Z,13.79
2023-04-18T22:06:12.186Z,13.70
2023-04-18T22:08:39.712Z,13.65
2023-04-18T22:11:09.141Z,13.55
2023-04-18T22:13:36.360Z,13.58
2023-04-18T22:16:04.093Z,13.60
2023-04-18T22:18:34.753Z,13.45
2023-04-18T22:21:03.427Z,13.38
2023-04-18T22:23:31.210Z,13.43
2023-04-18T22:25:58.517Z,13.43
2023-04-18T22:28:29.785Z,13.36
2023-04-18T22:30:57.062Z,13.29
2023-04-18T22:33:24.782Z,13.33
2023-04-18T22:35:52.881Z,13.31
2023-04-18T22:38:20.080Z,13.23
2023-04-18T22:40:47.261Z,13.29
2023-04-18T22:43:14.541Z,13.27
2023-04-18T22:45:41.699Z,13.25
2023-04-18T22:48:11.431Z,13.12
2023-04-18T22:50:42.485Z,13.08
2023-04-18T22:53:14.350Z,12.98
2023-04-18T22:55:43.832Z,12.91
2023-04-18T22:58:11.539Z,12.89
2023-04-18T23:00:38.806Z,12.85
2023-04-18T23:03:06.194Z,12.79
2023-04-18T23:05:34.287Z,12.75
2023-04-18T23:08:01.573Z,12.79
2023-04-18T23:10:28.828Z,12.78
2023-04-18T23:12:56.485Z,12.77
2023-04-18T23:15:28.984Z,12.66
2023-04-18T23:17:56.300Z,12.56
2023-04-18T23:20:24.074Z,12.46
2023-04-18T23:22:51.760Z,12.39
2023-04-18T23:25:22.104Z,12.31
2023-04-18T23:27:49.395Z,12.29
2023-04-18T23:30:17.162Z,12.22
2023-04-18T23:32:44.422Z,12.19
2023-04-18T23:35:14.197Z,12.10
2023-04-18T23:37:44.277Z,12.06
2023-04-18T23:40:11.628Z,12.09
2023-04-18T23:42:38.827Z,12.02
2023-04-18T23:45:06.964Z,11.93
2023-04-18T23:47:35.008Z,11.88
2023-04-18T23:50:02.722Z,11.81
2023-04-18T23:52:30.435Z,11.74
2023-04-18T23:55:01.534Z,11.75
2023-04-18T23:57:28.942Z,11.70
2023-04-18T23:59:56.217Z,11.81
